Time;durP1;ratioP1;P1;durP2;ratioP2;P2;SDS_P1;SDS_P2;PMS_P1;PMS_P2;Temp;Humidity;BMP_temperature;BMP_pressure;BME280_temperature;BME280_humidity;BME280_pressure;Samples;Min_cycle;Max_cycle;Signal;HPM_P1;HPM_P2
2022/01/13 00:02:30;;;;;;;29.27;13.40;;;1.20;78.50;;;;;;5028314;28;20207;-67
2022/01/13 00:04:58;;;;;;;21.63;12.57;;;1.20;78.40;;;;;;5012149;28;20205;-67
2022/01/13 00:07:25;;;;;;;25.07;12.33;;;1.20;78.70;;;;;;5013747;28;20223;-67
2022/01/13 00:09:52;;;;;;;22.33;12.27;;;1.10;79.00;;;;;;5015602;28;20204;-67
2022/01/13 00:12:21;;;;;;;20.13;11.27;;;1.10;79.40;;;;;;5013686;28;20219;-67
2022/01/13 00:15:09;;;;;;;19.80;10.40;;;1.10;79.50;;;;;;5016179;28;20204;-67
2022/01/13 00:25:55;;;;;;;16.83;10.70;;;1.10;79.50;;;;;;5015286;28;20578;-67
2022/01/13 00:28:23;;;;;;;19.77;10.27;;;1.10;79.40;;;;;;5012696;28;20234;-67
2022/01/13 00:30:54;;;;;;;18.20;10.63;;;1.00;79.20;;;;;;5013214;28;20695;-67
2022/01/13 00:33:24;;;;;;;19.70;11.00;;;1.00;79.20;;;;;;5026498;28;20636;-67
2022/01/13 00:35:58;;;;;;;22.53;11.43;;;1.00;79.20;;;;;;5034528;28;20228;-67
2022/01/13 00:38:27;;;;;;;17.93;10.17;;;1.00;79.20;;;;;;5014309;28;20203;-67
2022/01/13 00:40:54;;;;;;;19.20;10.60;;;1.00;79.20;;;;;;5034221;28;20207;-67
2022/01/13 00:43:21;;;;;;;17.40;9.53;;;1.00;79.00;;;;;;5033930;28;20232;-67
2022/01/13 00:45:49;;;;;;;20.07;10.93;;;1.00;78.90;;;;;;5015102;28;20214;-67
2022/01/13 00:48:18;;;;;;;19.13;10.13;;;1.00;78.60;;;;;;5018082;28;20603;-67
2022/01/13 00:50:45;;;;;;;17.53;10.03;;;1.00;78.40;;;;;;5036660;28;20214;-67
2022/01/13 00:53:13;;;;;;;17.20;9.40;;;1.00;78.50;;;;;;5015467;28;20670;-67
2022/01/13 00:55:49;;;;;;;16.07;9.33;;;1.00;78.60;;;;;;5033261;28;20192;-67
2022/01/13 00:58:17;;;;;;;16.53;9.57;;;1.00;78.50;;;;;;5020207;28;20217;-67
2022/01/13 01:00:45;;;;;;;17.43;10.60;;;1.00;78.00;;;;;;5030932;28;20653;-67
2022/01/13 01:03:12;;;;;;;20.40;10.37;;;0.90;77.70;;;;;;5033415;28;20199;-67
2022/01/13 01:05:39;;;;;;;25.70;11.13;;;0.90;77.90;;;;;;5015103;28;20245;-67
2022/01/13 01:08:09;;;;;;;17.53;10.13;;;0.90;77.90;;;;;;5033346;28;20657;-67
2022/01/13 01:10:37;;;;;;;19.63;10.00;;;0.80;78.20;;;;;;5033728;28;20556;-67
2022/01/13 01:13:12;;;;;;;16.93;10.30;;;0.90;78.40;;;;;;5033004;28;20213;-67
2022/01/13 01:15:44;;;;;;;16.70;9.90;;;0.80;77.90;;;;;;5032956;28;20207;-67
2022/01/13 01:18:40;;;;;;;22.90;10.00;;;0.80;77.40;;;;;;5035084;28;20536;-67
2022/01/13 01:23:36;;;;;;;16.17;9.23;;;0.70;77.60;;;;;;5037020;28;20206;-67
2022/01/13 01:26:25;;;;;;;15.37;9.43;;;0.70;77.90;;;;;;5033187;28;20222;-67
2022/01/13 01:29:01;;;;;;;13.17;8.77;;;0.60;78.20;;;;;;5031805;28;20218;-67
2022/01/13 01:31:33;;;;;;;15.60;9.30;;;0.60;78.40;;;;;;5032827;28;20207;-67
2022/01/13 01:36:40;;;;;;;18.13;9.67;;;0.50;78.90;;;;;;5023564;28;20211;-67
2022/01/13 01:39:08;;;;;;;14.30;8.80;;;0.50;79.00;;;;;;5031908;28;20613;-67
2022/01/13 01:41:45;;;;;;;14.23;8.40;;;0.50;79.30;;;;;;5034031;28;20544;-67
2022/01/13 01:44:26;;;;;;;17.73;9.07;;;0.50;79.50;;;;;;4999450;28;20218;-67
2022/01/13 01:46:54;;;;;;;15.07;8.37;;;0.40;79.50;;;;;;5029331;28;20222;-66
2022/01/13 01:49:24;;;;;;;16.33;8.57;;;0.50;79.50;;;;;;5034959;28;20227;-67
2022/01/13 01:51:57;;;;;;;13.37;8.43;;;0.50;79.50;;;;;;5020296;28;20202;-67
2022/01/13 01:54:25;;;;;;;14.17;8.37;;;0.50;79.30;;;;;;5019102;28;20199;-67
2022/01/13 01:56:52;;;;;;;13.00;8.00;;;0.50;79.20;;;;;;5032090;28;20650;-67
2022/01/13 01:59:24;;;;;;;14.20;8.10;;;0.50;79.10;;;;;;5019082;28;20217;-67
2022/01/13 02:01:51;;;;;;;14.37;8.03;;;0.50;79.00;;;;;;5036365;28;20219;-67
2022/01/13 02:04:20;;;;;;;18.20;8.63;;;0.50;79.00;;;;;;5031375;28;20207;-67
2022/01/13 02:06:48;;;;;;;14.37;7.87;;;0.50;78.90;;;;;;5031327;28;20214;-67
2022/01/13 02:09:18;;;;;;;17.67;8.17;;;0.50;78.80;;;;;;5033745;28;20231;-67
2022/01/13 02:11:50;;;;;;;16.57;7.80;;;0.50;78.70;;;;;;5034015;28;20211;-67
2022/01/13 02:17:14;;;;;;;13.33;6.90;;;0.60;79.10;;;;;;4985369;28;20237;-67
2022/01/13 02:19:46;;;;;;;12.87;7.50;;;0.60;78.10;;;;;;5029744;28;20207;-67
2022/01/13 02:22:14;;;;;;;20.37;7.70;;;0.60;77.70;;;;;;5016093;28;20207;-67
2022/01/13 02:24:41;;;;;;;11.47;7.27;;;0.60;77.20;;;;;;5035359;28;20369;-67
2022/01/13 02:27:08;;;;;;;11.10;7.23;;;0.50;77.10;;;;;;5019444;28;20203;-67
2022/01/13 02:29:35;;;;;;;9.97;6.07;;;0.50;77.20;;;;;;5031650;28;20226;-67
2022/01/13 02:32:04;;;;;;;11.30;6.50;;;0.50;77.50;;;;;;5035407;28;20199;-67
2022/01/13 02:34:32;;;;;;;13.50;7.57;;;0.50;77.70;;;;;;5036050;28;20548;-67
2022/01/13 02:36:59;;;;;;;13.43;7.00;;;0.50;77.70;;;;;;5021532;28;20289;-67
2022/01/13 02:39:27;;;;;;;9.87;7.00;;;0.50;77.70;;;;;;5035752;28;20666;-67
2022/01/13 02:41:55;;;;;;;12.03;7.53;;;0.50;77.50;;;;;;5017088;28;20199;-67
2022/01/13 02:44:24;;;;;;;11.73;6.67;;;0.50;77.00;;;;;;5007085;28;20419;-67
2022/01/13 02:47:07;;;;;;;13.67;6.93;;;0.50;76.10;;;;;;5016787;28;20650;-67
2022/01/13 02:49:34;;;;;;;10.63;6.97;;;0.50;75.90;;;;;;5021684;28;20238;-67
2022/01/13 02:52:02;;;;;;;11.93;6.90;;;0.50;76.10;;;;;;5033432;28;20214;-67
2022/01/13 02:54:30;;;;;;;12.37;7.10;;;0.50;76.10;;;;;;5020140;28;20214;-67
2022/01/13 02:56:57;;;;;;;14.53;7.10;;;0.40;76.10;;;;;;5034420;28;20206;-67
2022/01/13 02:59:24;;;;;;;11.77;6.80;;;0.40;76.40;;;;;;5036552;28;20576;-67
2022/01/13 03:01:51;;;;;;;14.27;6.80;;;0.40;76.60;;;;;;5035987;28;20206;-67
2022/01/13 03:04:23;;;;;;;12.13;7.17;;;0.40;76.70;;;;;;5019772;28;20215;-67
2022/01/13 03:06:50;;;;;;;10.67;6.63;;;0.40;76.90;;;;;;5034202;28;20211;-67
2022/01/13 03:09:17;;;;;;;11.83;5.60;;;0.40;77.00;;;;;;5034348;28;20219;-67
2022/01/13 03:11:45;;;;;;;10.73;6.53;;;0.30;77.10;;;;;;5034363;28;20211;-67
2022/01/13 03:14:12;;;;;;;10.10;6.07;;;0.30;77.20;;;;;;5016450;28;20403;-67
2022/01/13 03:16:44;;;;;;;12.07;7.47;;;0.30;77.30;;;;;;5020038;28;20278;-67
2022/01/13 03:19:11;;;;;;;10.53;5.80;;;0.30;77.50;;;;;;5036716;28;20203;-67
2022/01/13 03:21:38;;;;;;;10.03;5.67;;;0.30;77.60;;;;;;5034373;28;20200;-67
2022/01/13 03:24:10;;;;;;;10.93;7.10;;;0.30;77.60;;;;;;5035232;28;20206;-67
2022/01/13 03:26:37;;;;;;;8.93;5.77;;;0.20;77.50;;;;;;5021643;28;20203;-67
2022/01/13 03:29:15;;;;;;;11.20;6.47;;;0.20;77.50;;;;;;5040000;28;20226;-67
2022/01/13 03:31:45;;;;;;;10.23;5.27;;;0.20;77.50;;;;;;5034789;28;20515;-67
2022/01/13 03:34:16;;;;;;;10.60;5.83;;;0.20;77.50;;;;;;5035690;28;20239;-67
2022/01/13 03:36:45;;;;;;;10.80;6.13;;;0.20;77.50;;;;;;5038119;28;20233;-67
2022/01/13 03:39:13;;;;;;;9.80;6.03;;;0.20;77.50;;;;;;5037061;28;20206;-67
2022/01/13 03:41:41;;;;;;;11.93;5.33;;;0.20;77.50;;;;;;5034142;28;20232;-67
2022/01/13 03:44:17;;;;;;;10.13;5.47;;;0.20;77.50;;;;;;5035353;28;20207;-67
2022/01/13 03:46:44;;;;;;;10.53;5.73;;;0.20;76.90;;;;;;5031966;28;20610;-67
2022/01/13 03:49:12;;;;;;;10.10;5.67;;;0.20;76.60;;;;;;5017316;28;20247;-67
2022/01/13 03:52:23;;;;;;;10.83;6.00;;;0.10;76.50;;;;;;5037206;28;20218;-67
2022/01/13 03:54:59;;;;;;;8.87;5.13;;;0.10;76.70;;;;;;5007529;28;20215;-67
2022/01/13 03:57:46;;;;;;;10.33;5.50;;;0.00;76.90;;;;;;5033588;28;20228;-67
2022/01/13 04:00:38;;;;;;;10.63;5.97;;;0.00;76.90;;;;;;5017601;28;20206;-67
2022/01/13 04:03:06;;;;;;;12.67;6.27;;;0.00;77.00;;;;;;5035012;28;20205;-67
2022/01/13 04:05:59;;;;;;;11.37;6.10;;;0.00;76.60;;;;;;5025546;28;20261;-67
2022/01/13 04:08:26;;;;;;;10.00;5.20;;;0.00;76.70;;;;;;5031869;28;20218;-67
2022/01/13 04:11:06;;;;;;;10.23;5.87;;;0.00;76.80;;;;;;5033163;28;20207;-67
2022/01/13 04:14:27;;;;;;;12.23;5.90;;;0.00;77.00;;;;;;5032009;28;20207;-67
2022/01/13 04:16:27;;;;;;;7.67;5.30;;;-0.10;77.10;;;;;;5025227;28;20234;-67
2022/01/13 04:19:00;;;;;;;8.33;5.83;;;-0.10;77.30;;;;;;5018379;28;20560;-67
2022/01/13 04:21:28;;;;;;;10.37;5.53;;;-0.10;76.60;;;;;;5032991;28;20194;-67
2022/01/13 04:23:56;;;;;;;9.97;5.73;;;-0.10;76.30;;;;;;5031211;28;20554;-67
2022/01/13 04:26:28;;;;;;;10.87;5.93;;;-0.10;75.60;;;;;;5036094;28;20313;-67
2022/01/13 04:29:06;;;;;;;13.60;6.37;;;-0.20;75.70;;;;;;5033115;28;20223;-67
2022/01/13 04:31:33;;;;;;;10.50;6.07;;;-0.20;75.70;;;;;;5014542;28;20214;-66
2022/01/13 04:34:00;;;;;;;9.27;6.47;;;-0.20;75.50;;;;;;5034112;28;20231;-66
2022/01/13 04:36:27;;;;;;;12.20;6.37;;;-0.20;75.40;;;;;;5030443;28;20225;-66
2022/01/13 04:38:54;;;;;;;8.03;5.33;;;-0.20;75.40;;;;;;5035228;28;20212;-67
2022/01/13 04:41:35;;;;;;;9.13;5.70;;;-0.20;75.50;;;;;;5033516;28;20218;-67
2022/01/13 04:44:07;;;;;;;12.97;5.40;;;-0.30;75.50;;;;;;5030087;28;20207;-67
2022/01/13 04:46:34;;;;;;;10.53;5.83;;;-0.30;75.60;;;;;;5032834;28;20203;-67
2022/01/13 04:49:01;;;;;;;10.10;5.60;;;-0.30;75.80;;;;;;5015939;28;20432;-67
2022/01/13 04:51:29;;;;;;;11.80;5.97;;;-0.20;75.40;;;;;;5032588;28;20209;-66
2022/01/13 04:53:56;;;;;;;10.93;6.00;;;-0.20;75.20;;;;;;5032400;28;20199;-66
2022/01/13 04:56:37;;;;;;;9.63;5.20;;;-0.20;75.20;;;;;;5030016;28;20195;-66
2022/01/13 04:59:06;;;;;;;9.33;6.13;;;-0.20;75.30;;;;;;5033145;28;20230;-66
2022/01/13 05:01:33;;;;;;;11.50;5.90;;;-0.20;75.10;;;;;;5032558;28;20654;-66
2022/01/13 05:04:01;;;;;;;9.33;5.00;;;-0.20;75.40;;;;;;5033197;28;20199;-67
2022/01/13 05:06:28;;;;;;;9.90;5.93;;;-0.30;75.70;;;;;;5030161;28;20207;-67
2022/01/13 05:08:56;;;;;;;10.63;5.80;;;-0.30;76.10;;;;;;5033390;28;20219;-66
2022/01/13 05:11:23;;;;;;;10.60;6.43;;;-0.40;76.40;;;;;;5032406;28;20245;-66
2022/01/13 05:13:50;;;;;;;14.77;6.93;;;-0.40;76.60;;;;;;5024289;28;20301;-66
2022/01/13 05:16:23;;;;;;;13.40;8.00;;;-0.40;76.80;;;;;;5010426;28;20211;-67
2022/01/13 05:21:26;;;;;;;16.73;8.40;;;-0.40;77.10;;;;;;5023534;28;20210;-67
2022/01/13 05:23:53;;;;;;;18.50;7.83;;;-0.40;76.90;;;;;;5015647;28;20548;-66
2022/01/13 05:26:22;;;;;;;15.00;6.20;;;-0.40;77.20;;;;;;5031231;28;20213;-66
2022/01/13 05:28:50;;;;;;;11.53;7.37;;;-0.40;77.30;;;;;;5013982;28;20220;-66
2022/01/13 05:31:17;;;;;;;14.20;7.37;;;-0.50;77.50;;;;;;5032516;28;20195;-66
2022/01/13 05:33:44;;;;;;;17.57;7.57;;;-0.50;77.70;;;;;;5015266;28;20238;-66
2022/01/13 05:36:13;;;;;;;13.37;8.20;;;-0.50;77.80;;;;;;5032028;28;20214;-66
2022/01/13 05:38:42;;;;;;;15.70;8.70;;;-0.50;77.90;;;;;;5030783;28;20203;-66
2022/01/13 05:41:10;;;;;;;14.60;7.63;;;-0.50;78.10;;;;;;5032314;28;20214;-67
2022/01/13 05:43:37;;;;;;;12.33;7.93;;;-0.60;78.30;;;;;;5032396;28;20209;-67
2022/01/13 05:46:05;;;;;;;18.70;8.60;;;-0.60;79.10;;;;;;4998368;28;20211;-67
2022/01/13 05:48:31;;;;;;;14.20;7.93;;;-0.60;78.60;;;;;;5032103;28;20207;-66
2022/01/13 05:50:59;;;;;;;15.50;8.30;;;-0.60;78.60;;;;;;5031585;28;20540;-66
2022/01/13 05:53:26;;;;;;;13.37;7.57;;;-0.60;78.50;;;;;;5014765;28;20207;-66
2022/01/13 05:55:53;;;;;;;14.43;8.53;;;-0.70;78.60;;;;;;5031776;28;20199;-66
2022/01/13 05:58:20;;;;;;;13.67;8.03;;;-0.60;78.60;;;;;;5032169;28;20527;-66
2022/01/13 06:00:47;;;;;;;14.70;8.37;;;-0.70;78.60;;;;;;5026614;28;20225;-66
2022/01/13 06:03:16;;;;;;;17.90;9.23;;;-0.70;78.70;;;;;;5031525;28;20310;-66
2022/01/13 06:05:43;;;;;;;18.97;9.63;;;-0.70;78.70;;;;;;5034728;28;20203;-66
2022/01/13 06:08:10;;;;;;;15.47;9.63;;;-0.70;78.60;;;;;;5035717;28;20222;-66
2022/01/13 06:10:42;;;;;;;18.27;9.30;;;-0.70;78.80;;;;;;5001820;28;20238;-66
2022/01/13 06:13:09;;;;;;;21.07;9.20;;;-0.60;79.10;;;;;;5035495;28;20203;-67
2022/01/13 06:15:37;;;;;;;19.30;8.53;;;-0.60;78.20;;;;;;5035602;28;20218;-66
2022/01/13 06:18:09;;;;;;;20.37;9.57;;;-0.60;77.40;;;;;;5035623;28;20254;-66
2022/01/13 06:20:36;;;;;;;18.60;10.57;;;-0.60;77.10;;;;;;5016564;28;20247;-66
2022/01/13 06:23:05;;;;;;;16.77;9.60;;;-0.60;77.30;;;;;;5035576;28;20211;-66
2022/01/13 06:25:32;;;;;;;18.10;10.03;;;-0.60;77.40;;;;;;5018035;28;20801;-66
2022/01/13 06:27:59;;;;;;;22.77;10.43;;;-0.60;77.80;;;;;;5018367;28;20207;-66
2022/01/13 06:30:41;;;;;;;18.27;9.27;;;-0.60;78.00;;;;;;5032630;28;20223;-66
2022/01/13 06:33:08;;;;;;;17.87;9.87;;;-0.60;78.30;;;;;;5035750;28;20261;-66
2022/01/13 06:35:36;;;;;;;18.50;10.50;;;-0.70;78.10;;;;;;5035979;28;20199;-67
2022/01/13 06:38:03;;;;;;;27.40;12.17;;;-0.70;78.00;;;;;;5036041;28;20217;-67
2022/01/13 06:40:31;;;;;;;39.30;18.37;;;-0.70;77.80;;;;;;5035530;28;20200;-67
2022/01/13 06:42:58;;;;;;;31.33;15.20;;;-0.70;77.70;;;;;;5034201;28;20758;-67
2022/01/13 06:45:25;;;;;;;19.33;11.77;;;-0.70;77.80;;;;;;5027878;28;20281;-67
2022/01/13 06:47:52;;;;;;;24.80;12.33;;;-0.70;77.70;;;;;;5017782;28;20218;-67
2022/01/13 06:50:19;;;;;;;24.33;12.23;;;-0.70;77.60;;;;;;5034786;28;20737;-66
2022/01/13 06:52:47;;;;;;;25.13;12.27;;;-0.70;77.70;;;;;;5033928;28;20206;-67
2022/01/13 06:55:15;;;;;;;18.13;11.07;;;-0.70;77.90;;;;;;5032218;28;20226;-67
2022/01/13 06:57:42;;;;;;;20.87;11.40;;;-0.70;78.30;;;;;;5034481;28;20257;-66
2022/01/13 07:00:10;;;;;;;19.67;11.63;;;-0.60;78.40;;;;;;5022679;28;20203;-66
2022/01/13 07:02:37;;;;;;;20.90;11.63;;;-0.60;78.40;;;;;;5032301;28;20203;-66
2022/01/13 07:05:05;;;;;;;19.80;13.27;;;-0.60;78.50;;;;;;5034250;28;20222;-66
2022/01/13 07:07:35;;;;;;;20.17;12.20;;;-0.60;78.50;;;;;;5034811;28;20200;-66
2022/01/13 07:10:10;;;;;;;21.00;11.53;;;-0.50;78.50;;;;;;5033328;28;20246;-66
2022/01/13 07:12:38;;;;;;;17.73;11.93;;;-0.50;78.40;;;;;;5033770;28;20211;-66
2022/01/13 07:15:06;;;;;;;20.67;11.37;;;-0.40;78.30;;;;;;5034813;28;20210;-67
2022/01/13 07:17:34;;;;;;;20.43;11.73;;;-0.30;78.30;;;;;;5034723;28;20552;-67
2022/01/13 07:20:02;;;;;;;23.03;11.23;;;-0.30;78.00;;;;;;5035033;28;20203;-67
2022/01/13 07:22:29;;;;;;;26.57;11.47;;;-0.20;78.00;;;;;;5001109;28;20211;-67
2022/01/13 07:24:56;;;;;;;16.97;10.53;;;-0.20;78.00;;;;;;5034884;28;20207;-67
2022/01/13 07:27:23;;;;;;;26.50;10.90;;;-0.20;78.10;;;;;;5016770;28;20225;-67
2022/01/13 07:29:50;;;;;;;18.63;12.10;;;-0.10;78.20;;;;;;5016207;28;20594;-67
2022/01/13 07:32:17;;;;;;;27.20;12.37;;;-0.10;78.30;;;;;;5034073;28;20214;-67
2022/01/13 07:34:44;;;;;;;20.33;11.43;;;-0.10;78.40;;;;;;5034687;28;20527;-67
2022/01/13 07:37:15;;;;;;;22.10;10.77;;;0.00;78.50;;;;;;5032449;28;20265;-67
2022/01/13 07:39:42;;;;;;;20.77;10.00;;;0.00;78.50;;;;;;5034424;28;20204;-67
2022/01/13 07:42:10;;;;;;;17.53;10.20;;;0.10;78.40;;;;;;5033973;28;20235;-67
2022/01/13 07:44:37;;;;;;;15.40;9.83;;;0.10;78.20;;;;;;5017105;28;20291;-67
2022/01/13 07:47:04;;;;;;;21.87;11.30;;;0.20;78.20;;;;;;5033823;28;20649;-67
2022/01/13 07:49:31;;;;;;;18.77;11.33;;;0.30;78.30;;;;;;5034014;28;20207;-67
2022/01/13 07:51:58;;;;;;;21.93;10.23;;;0.40;77.30;;;;;;5033849;28;20534;-67
2022/01/13 07:54:28;;;;;;;19.27;9.63;;;0.40;77.30;;;;;;5029740;28;20306;-67
2022/01/13 07:57:00;;;;;;;19.53;10.70;;;0.50;77.40;;;;;;5033967;28;20261;-67
2022/01/13 07:59:29;;;;;;;33.80;17.97;;;0.60;76.50;;;;;;5033420;28;20202;-67
2022/01/13 08:01:57;;;;;;;22.63;12.87;;;0.60;76.10;;;;;;5016480;28;20261;-67
2022/01/13 08:04:25;;;;;;;14.30;8.87;;;0.60;75.60;;;;;;5032762;28;20545;-67
2022/01/13 08:06:52;;;;;;;16.23;9.87;;;0.60;75.90;;;;;;5033800;28;20202;-67
2022/01/13 08:09:23;;;;;;;19.53;9.47;;;0.50;76.10;;;;;;5016218;28;20238;-67
2022/01/13 08:11:50;;;;;;;24.40;14.57;;;0.50;76.30;;;;;;5016386;28;20216;-67
2022/01/13 08:14:17;;;;;;;32.17;17.40;;;0.50;76.80;;;;;;5016446;28;20212;-67
2022/01/13 08:16:45;;;;;;;22.77;13.50;;;0.60;77.30;;;;;;5033434;28;20524;-67
2022/01/13 08:21:58;;;;;;;21.13;9.83;;;0.80;77.80;;;;;;5033464;28;20206;-67
2022/01/13 08:24:25;;;;;;;15.10;8.80;;;1.00;77.70;;;;;;5030390;28;20199;-67
2022/01/13 08:26:52;;;;;;;31.83;16.40;;;1.10;77.40;;;;;;5017238;28;20223;-67
2022/01/13 08:29:19;;;;;;;20.87;10.43;;;1.20;76.30;;;;;;5016527;28;20211;-67
2022/01/13 08:31:46;;;;;;;23.40;11.50;;;1.30;76.10;;;;;;5033431;28;20734;-67
2022/01/13 08:34:15;;;;;;;17.97;11.90;;;1.40;75.90;;;;;;5033329;28;20581;-67
2022/01/13 08:36:44;;;;;;;42.50;23.53;;;1.40;76.20;;;;;;5015948;28;20203;-67
2022/01/13 08:39:11;;;;;;;30.67;15.43;;;1.50;76.60;;;;;;5014369;28;20261;-67
2022/01/13 08:41:42;;;;;;;26.00;15.90;;;1.60;77.10;;;;;;5033106;28;20203;-67
2022/01/13 08:44:10;;;;;;;23.33;14.77;;;1.70;77.00;;;;;;5030944;28;20215;-67
2022/01/13 08:46:38;;;;;;;22.27;13.80;;;1.80;76.70;;;;;;5032727;28;20211;-67
2022/01/13 08:49:05;;;;;;;36.47;19.33;;;1.80;76.60;;;;;;5031516;28;20215;-67
2022/01/13 08:51:33;;;;;;;24.30;15.47;;;1.90;76.80;;;;;;5033223;28;20203;-67
2022/01/13 08:54:00;;;;;;;21.57;12.80;;;2.00;77.10;;;;;;5035217;28;20546;-67
2022/01/13 08:56:27;;;;;;;19.57;12.87;;;2.10;77.30;;;;;;5016154;28;20204;-67
2022/01/13 08:58:54;;;;;;;23.23;13.77;;;2.20;77.50;;;;;;5035824;28;20200;-67
2022/01/13 09:01:22;;;;;;;23.37;14.33;;;2.30;77.50;;;;;;4998726;28;20228;-67
2022/01/13 09:03:49;;;;;;;36.17;21.20;;;2.40;77.60;;;;;;5033614;28;20226;-67
2022/01/13 09:06:16;;;;;;;34.60;22.00;;;2.40;77.50;;;;;;5032768;28;20455;-67
2022/01/13 09:08:43;;;;;;;25.70;14.60;;;2.50;77.40;;;;;;5015571;28;20221;-67
2022/01/13 09:11:10;;;;;;;25.40;13.77;;;2.50;77.30;;;;;;5036903;28;20232;-68
2022/01/13 09:13:38;;;;;;;22.70;12.80;;;2.60;77.10;;;;;;5031850;28;20230;-67
2022/01/13 09:16:14;;;;;;;24.57;13.30;;;2.60;77.20;;;;;;5015020;28;20210;-67
2022/01/13 09:19:08;;;;;;;23.67;14.97;;;2.60;77.30;;;;;;5013449;28;20211;-67
2022/01/13 09:21:38;;;;;;;32.33;17.17;;;2.70;77.80;;;;;;5013839;28;20670;-67
2022/01/13 09:24:07;;;;;;;27.70;16.47;;;2.80;78.10;;;;;;5032685;28;20224;-67
2022/01/13 09:26:35;;;;;;;29.80;17.90;;;2.90;78.30;;;;;;5032637;28;20269;-67
2022/01/13 09:29:03;;;;;;;34.60;23.53;;;3.00;78.40;;;;;;5015027;28;20215;-67
2022/01/13 09:31:31;;;;;;;31.37;18.37;;;3.10;78.40;;;;;;5031545;28;20219;-67
2022/01/13 09:34:01;;;;;;;31.50;18.57;;;3.20;78.50;;;;;;5031955;28;20679;-67
2022/01/13 09:36:30;;;;;;;27.93;17.33;;;3.30;79.10;;;;;;5035894;28;20285;-65
2022/01/13 09:38:59;;;;;;;25.57;17.13;;;3.40;78.40;;;;;;5018285;28;20203;-66
2022/01/13 09:41:30;;;;;;;29.47;18.37;;;3.50;78.40;;;;;;5017812;28;20576;-66
2022/01/13 09:44:02;;;;;;;32.13;18.60;;;3.60;78.40;;;;;;5037156;28;20632;-66
2022/01/13 09:46:30;;;;;;;29.37;17.60;;;3.70;78.30;;;;;;5039243;28;20240;-65
2022/01/13 09:49:02;;;;;;;36.73;19.47;;;3.70;78.10;;;;;;5029943;28;20216;-65
2022/01/13 09:51:32;;;;;;;29.90;18.77;;;3.90;77.90;;;;;;5042650;28;20223;-65
2022/01/13 09:53:59;;;;;;;31.03;19.60;;;3.90;77.80;;;;;;5040150;28;20543;-65
2022/01/13 09:56:26;;;;;;;39.93;23.90;;;4.00;77.70;;;;;;5038865;28;20638;-65
2022/01/13 09:58:53;;;;;;;34.90;20.83;;;4.00;77.60;;;;;;5019080;28;20642;-65
2022/01/13 10:01:21;;;;;;;49.73;29.80;;;4.10;77.70;;;;;;5036179;28;20687;-66
2022/01/13 10:03:48;;;;;;;50.43;35.27;;;4.10;77.60;;;;;;5015116;28;20212;-65
2022/01/13 10:06:20;;;;;;;59.97;40.50;;;4.20;77.80;;;;;;5036150;28;20655;-66
2022/01/13 10:08:53;;;;;;;44.77;29.50;;;4.20;77.70;;;;;;5035958;28;20292;-66
2022/01/13 10:11:36;;;;;;;34.30;20.17;;;4.30;77.70;;;;;;5037810;28;20643;-65
2022/01/13 10:16:23;;;;;;;37.13;21.30;;;4.40;77.80;;;;;;5019499;28;20296;-66
2022/01/13 10:17:08;;;;;;;30.30;19.50;;;4.40;77.90;;;;;;5036494;28;20539;-65
2022/01/13 10:19:36;;;;;;;28.13;20.07;;;4.60;78.00;;;;;;5037674;28;20224;-65
2022/01/13 10:22:07;;;;;;;32.23;20.97;;;4.60;77.80;;;;;;5031358;28;20206;-65
2022/01/13 10:24:39;;;;;;;29.57;20.73;;;4.70;77.70;;;;;;5039423;28;20209;-65
2022/01/13 10:27:15;;;;;;;30.73;20.10;;;4.70;77.60;;;;;;5036215;28;20205;-65
2022/01/13 10:29:50;;;;;;;33.53;23.27;;;4.80;77.50;;;;;;5036964;28;20279;-66
2022/01/13 10:32:19;;;;;;;31.13;20.97;;;4.90;77.10;;;;;;5036583;28;20217;-65
2022/01/13 10:34:49;;;;;;;39.87;23.93;;;4.90;76.90;;;;;;5037052;28;20221;-65
2022/01/13 10:37:19;;;;;;;36.23;24.87;;;4.90;76.90;;;;;;5033120;28;20436;-65
2022/01/13 10:39:49;;;;;;;36.97;22.67;;;5.00;76.80;;;;;;5034701;28;20221;-66
2022/01/13 10:45:14;;;;;;;44.03;26.20;;;5.10;75.20;;;;;;5035725;28;20204;-67
2022/01/13 10:48:08;;;;;;;46.10;30.33;;;5.10;75.20;;;;;;5034902;28;20213;-67
2022/01/13 10:50:44;;;;;;;40.03;28.23;;;5.10;75.20;;;;;;5031366;28;20229;-66
2022/01/13 10:53:19;;;;;;;34.97;24.63;;;5.20;75.30;;;;;;5021606;28;20255;-66
2022/01/13 10:55:55;;;;;;;37.73;24.50;;;5.20;75.30;;;;;;5017899;28;20309;-66
2022/01/13 10:58:26;;;;;;;37.93;24.20;;;5.30;75.40;;;;;;5035243;28;20495;-66
2022/01/13 11:00:54;;;;;;;36.80;25.10;;;5.30;75.50;;;;;;5035169;28;20366;-66
2022/01/13 11:03:25;;;;;;;40.17;24.67;;;5.40;75.60;;;;;;5034302;28;20531;-66
2022/01/13 11:05:56;;;;;;;42.00;25.00;;;5.60;75.70;;;;;;5033302;28;20201;-67
2022/01/13 11:08:26;;;;;;;35.03;22.53;;;5.60;75.40;;;;;;5017829;28;20214;-66
2022/01/13 11:10:56;;;;;;;36.73;23.80;;;5.70;74.20;;;;;;5027776;28;20248;-66
2022/01/13 11:13:24;;;;;;;32.77;23.63;;;5.70;74.40;;;;;;5033328;28;20283;-66
2022/01/13 11:15:55;;;;;;;36.47;24.13;;;5.80;74.70;;;;;;5007727;28;20197;-66
2022/01/13 11:18:31;;;;;;;34.17;25.00;;;5.90;74.90;;;;;;5035979;28;20753;-66
2022/01/13 11:20:59;;;;;;;39.03;26.23;;;6.00;75.10;;;;;;5034908;28;20213;-66
2022/01/13 11:23:26;;;;;;;34.93;23.77;;;6.10;75.10;;;;;;5031019;28;20206;-66
2022/01/13 11:25:56;;;;;;;36.93;25.47;;;6.30;74.90;;;;;;5035127;28;20252;-66
2022/01/13 11:28:24;;;;;;;37.70;25.23;;;6.40;75.00;;;;;;5030536;28;20213;-66
2022/01/13 11:30:51;;;;;;;36.40;24.90;;;6.50;73.90;;;;;;5016769;28;20222;-67
2022/01/13 11:33:19;;;;;;;39.83;29.20;;;6.60;73.80;;;;;;5025106;28;20256;-66
2022/01/13 11:35:55;;;;;;;36.40;24.50;;;6.70;73.70;;;;;;5035107;28;20197;-66
2022/01/13 11:38:25;;;;;;;36.47;25.27;;;6.80;73.50;;;;;;5034675;28;20208;-66
2022/01/13 11:40:57;;;;;;;36.97;26.40;;;6.90;73.50;;;;;;5038317;28;21041;-67
2022/01/13 11:43:29;;;;;;;42.83;26.67;;;7.00;72.20;;;;;;5013442;28;20699;-66
2022/01/13 11:46:10;;;;;;;40.77;28.47;;;7.00;71.10;;;;;;5025255;28;20506;-66
2022/01/13 11:48:42;;;;;;;48.07;32.73;;;7.10;71.10;;;;;;5036686;28;20240;-66
2022/01/13 11:51:15;;;;;;;36.80;24.40;;;7.20;71.50;;;;;;5029895;28;20244;-67
2022/01/13 11:53:56;;;;;;;37.33;24.17;;;7.20;71.80;;;;;;5036177;28;20650;-67
2022/01/13 11:56:24;;;;;;;36.27;27.33;;;7.40;71.30;;;;;;5034507;28;20722;-66
2022/01/13 11:58:53;;;;;;;43.10;30.17;;;7.50;71.00;;;;;;5018598;28;20211;-67
2022/01/13 12:01:25;;;;;;;36.87;25.70;;;7.50;70.70;;;;;;5037113;28;20432;-67
2022/01/13 12:03:53;;;;;;;37.27;25.43;;;7.60;69.70;;;;;;5015939;28;20226;-67
2022/01/13 12:06:32;;;;;;;38.77;23.97;;;7.70;69.60;;;;;;5029731;28;20289;-67
2022/01/13 12:08:59;;;;;;;32.97;22.50;;;7.80;69.30;;;;;;5032274;28;20228;-67
2022/01/13 12:11:51;;;;;;;28.80;21.33;;;7.80;68.50;;;;;;5034332;28;20650;-67
2022/01/13 12:14:24;;;;;;;33.83;21.73;;;7.80;66.50;;;;;;5031526;28;20226;-67
2022/01/13 12:17:06;;;;;;;31.53;21.73;;;7.70;65.60;;;;;;5035698;28;20264;-67
2022/01/13 12:19:41;;;;;;;30.57;21.53;;;7.70;65.90;;;;;;5035535;28;20213;-68
2022/01/13 12:22:39;;;;;;;32.40;21.73;;;7.60;66.70;;;;;;5006914;28;20230;-69
2022/01/13 12:25:12;;;;;;;30.10;20.67;;;7.60;66.70;;;;;;5011881;28;20207;-67
2022/01/13 12:27:39;;;;;;;34.03;22.50;;;7.60;65.80;;;;;;5033658;28;20232;-67
2022/01/13 12:30:22;;;;;;;27.90;21.00;;;7.60;66.30;;;;;;5022450;28;20203;-67
2022/01/13 12:32:52;;;;;;;27.17;19.27;;;7.60;66.40;;;;;;5023778;28;20245;-68
2022/01/13 12:35:41;;;;;;;30.60;19.57;;;7.60;65.00;;;;;;5035890;28;20654;-67
2022/01/13 12:38:11;;;;;;;30.03;20.60;;;7.60;65.50;;;;;;5016936;28;20207;-67
2022/01/13 12:40:54;;;;;;;31.97;21.67;;;7.60;65.10;;;;;;5013440;28;20225;-67
2022/01/13 12:46:07;;;;;;;28.57;20.23;;;7.60;65.60;;;;;;5031109;28;20206;-68
2022/01/13 12:48:36;;;;;;;31.40;22.13;;;7.60;65.00;;;;;;5033262;28;20228;-67
2022/01/13 12:51:04;;;;;;;27.30;19.57;;;7.60;65.40;;;;;;5032477;28;20226;-67
2022/01/13 12:53:34;;;;;;;28.57;20.33;;;7.60;64.80;;;;;;5029896;28;20202;-67
2022/01/13 12:56:10;;;;;;;33.63;21.13;;;7.60;64.80;;;;;;5032317;28;20210;-67
2022/01/13 12:58:43;;;;;;;33.73;20.80;;;7.60;64.80;;;;;;5032653;28;20294;-67
2022/01/13 13:01:31;;;;;;;34.40;21.43;;;7.60;64.90;;;;;;5033112;28;20210;-67
2022/01/13 13:04:08;;;;;;;32.93;20.63;;;7.60;65.40;;;;;;5015684;28;20307;-68
2022/01/13 13:06:37;;;;;;;29.90;21.27;;;7.60;64.70;;;;;;5014114;28;20221;-67
2022/01/13 13:09:05;;;;;;;31.77;21.77;;;7.60;65.10;;;;;;5034682;28;20218;-67
2022/01/13 13:11:34;;;;;;;31.77;22.10;;;7.70;64.70;;;;;;5033750;28;20232;-68
2022/01/13 13:14:01;;;;;;;33.10;21.63;;;7.70;64.20;;;;;;5029894;28;20279;-68
2022/01/13 13:16:28;;;;;;;33.87;22.00;;;7.70;65.00;;;;;;5013394;28;20218;-68
2022/01/13 13:18:55;;;;;;;31.53;20.97;;;7.80;65.60;;;;;;5037094;28;20267;-68
2022/01/13 13:21:27;;;;;;;31.83;23.17;;;7.90;66.20;;;;;;5036542;28;20214;-68
2022/01/13 13:23:54;;;;;;;34.07;22.73;;;8.00;66.20;;;;;;5032889;28;20625;-68